Time;durP1;ratioP1;P1;durP2;ratioP2;P2;SDS_P1;SDS_P2;PMS_P1;PMS_P2;Temp;Humidity;BMP_temperature;BMP_pressure;BME280_temperature;BME280_humidity;BME280_pressure;Samples;Min_cycle;Max_cycle;Signal;HPM_P1;HPM_P2
2024/01/21 00:00:24;;;;;;;4.60;1.20;;;;;;;-0.26;100.00;100676.83;104511;1263;60475;-54
2024/01/21 00:02:52;;;;;;;2.80;0.90;;;;;;;-0.30;100.00;100681.55;104529;1262;74397;-54
2024/01/21 00:05:19;;;;;;;2.30;0.90;;;;;;;-0.35;100.00;100680.80;104681;1263;65567;-53
2024/01/21 00:07:46;;;;;;;2.10;0.90;;;;;;;-0.41;100.00;100680.38;104529;1263;73146;-54
2024/01/21 00:10:13;;;;;;;6.60;1.10;;;;;;;-0.45;100.00;100682.80;104480;1260;60553;-54
2024/01/21 00:12:41;;;;;;;7.30;1.20;;;;;;;-0.47;100.00;100682.07;104566;1262;60418;-55
2024/01/21 00:15:09;;;;;;;4.90;1.00;;;;;;;-0.47;100.00;100676.79;104665;1257;72120;-55
2024/01/21 00:17:36;;;;;;;2.90;1.00;;;;;;;-0.44;100.00;100677.01;104558;1262;67497;-54
2024/01/21 00:20:04;;;;;;;4.50;1.30;;;;;;;-0.41;100.00;100681.60;105214;1261;70842;-54
2024/01/21 00:22:32;;;;;;;3.10;0.80;;;;;;;-0.40;100.00;100683.38;106113;1259;59823;-55
2024/01/21 00:24:59;;;;;;;4.20;1.10;;;;;;;-0.39;100.00;100683.57;104580;1263;60491;-53
2024/01/21 00:27:26;;;;;;;5.00;1.50;;;;;;;-0.39;100.00;100686.56;104619;1262;73837;-54
2024/01/21 00:29:54;;;;;;;5.40;1.30;;;;;;;-0.42;100.00;100687.95;104825;1262;65689;-54
2024/01/21 00:32:21;;;;;;;2.70;1.00;;;;;;;-0.45;100.00;100690.22;104840;1257;71421;-54
2024/01/21 00:34:49;;;;;;;4.10;1.10;;;;;;;-0.46;100.00;100694.08;104836;1260;60859;-54
2024/01/21 00:37:16;;;;;;;3.20;1.10;;;;;;;-0.45;100.00;100690.74;104733;1256;60527;-54
2024/01/21 00:39:43;;;;;;;4.60;1.20;;;;;;;-0.43;100.00;100691.64;104817;1262;73896;-55
2024/01/21 00:42:11;;;;;;;3.20;1.20;;;;;;;-0.41;100.00;100693.76;104793;1260;66769;-53
2024/01/21 00:44:38;;;;;;;7.20;1.70;;;;;;;-0.40;100.00;100695.37;105071;1263;72804;-52
2024/01/21 00:47:06;;;;;;;3.50;1.10;;;;;;;-0.39;100.00;100701.73;105047;1262;60577;-51
2024/01/21 00:49:33;;;;;;;3.70;1.20;;;;;;;-0.40;100.00;100699.77;104622;1257;60058;-54
2024/01/21 00:52:01;;;;;;;3.50;1.10;;;;;;;-0.42;100.00;100700.81;104582;1262;73749;-55
2024/01/21 00:54:28;;;;;;;1.80;1.00;;;;;;;-0.44;100.00;100702.05;104642;1263;66739;-55
2024/01/21 00:56:55;;;;;;;1.90;1.00;;;;;;;-0.46;100.00;100703.95;104645;1260;70441;-54
2024/01/21 00:59:23;;;;;;;4.20;1.40;;;;;;;-0.47;100.00;100701.12;104469;1262;61005;-54
2024/01/21 01:01:50;;;;;;;3.40;1.10;;;;;;;-0.46;100.00;100703.08;104884;1257;60489;-54
2024/01/21 01:04:17;;;;;;;2.90;1.20;;;;;;;-0.44;100.00;100704.86;105022;1259;73908;-54
2024/01/21 01:06:45;;;;;;;4.10;1.60;;;;;;;-0.41;100.00;100703.83;108727;1257;66992;-54
2024/01/21 01:09:12;;;;;;;5.60;2.00;;;;;;;-0.38;100.00;100702.98;108095;1258;71408;-54
2024/01/21 01:11:40;;;;;;;10.00;1.80;;;;;;;-0.35;100.00;100702.84;108813;1258;59265;-55
2024/01/21 01:14:07;;;;;;;4.20;1.50;;;;;;;-0.32;100.00;100702.33;108699;1257;58831;-54
2024/01/21 01:16:38;;;;;;;3.30;1.40;;;;;;;-0.31;100.00;100704.64;108690;1257;73917;-54
2024/01/21 01:19:09;;;;;;;6.30;1.30;;;;;;;-0.32;100.00;100707.44;108867;1257;67491;-54
2024/01/21 01:21:36;;;;;;;4.00;1.30;;;;;;;-0.34;100.00;100709.55;105701;1262;72697;-54
2024/01/21 01:24:04;;;;;;;3.70;1.60;;;;;;;-0.35;100.00;100709.02;104802;1257;60533;-51
2024/01/21 01:26:32;;;;;;;4.10;1.30;;;;;;;-0.35;100.00;100712.54;104712;1257;60439;-54
2024/01/21 01:28:59;;;;;;;3.30;1.50;;;;;;;-0.34;100.00;100707.78;104636;1263;73865;-54
2024/01/21 01:31:26;;;;;;;6.30;2.00;;;;;;;-0.32;100.00;100705.67;104721;1262;67291;-54
2024/01/21 01:33:54;;;;;;;7.10;1.70;;;;;;;-0.29;100.00;100707.66;104851;1257;72693;-54
2024/01/21 01:36:21;;;;;;;2.10;1.30;;;;;;;-0.27;100.00;100708.75;104739;1263;60552;-53
2024/01/21 01:38:48;;;;;;;5.20;1.50;;;;;;;-0.26;100.00;100709.64;104817;1259;60429;-54
2024/01/21 01:41:16;;;;;;;8.30;3.20;;;;;;;-0.24;100.00;100709.11;104937;1257;72716;-52
2024/01/21 01:43:43;;;;;;;3.70;1.80;;;;;;;-0.26;100.00;100714.06;104704;1257;65649;-52
2024/01/21 01:46:10;;;;;;;5.90;1.90;;;;;;;-0.27;100.00;100710.87;104713;1262;71398;-54
2024/01/21 01:48:37;;;;;;;5.70;2.00;;;;;;;-0.28;100.00;100712.45;104637;1263;61372;-53
2024/01/21 01:51:05;;;;;;;4.30;1.80;;;;;;;-0.27;100.00;100713.15;104555;1264;60667;-54
2024/01/21 01:53:33;;;;;;;2.20;1.10;;;;;;;-0.27;100.00;100720.05;104781;1257;73244;-54
2024/01/21 01:56:00;;;;;;;3.10;1.60;;;;;;;-0.26;100.00;100719.88;104953;1260;67669;-53
2024/01/21 01:58:28;;;;;;;3.90;1.70;;;;;;;-0.23;100.00;100721.82;104915;1262;71202;-54
2024/01/21 02:00:56;;;;;;;3.90;1.60;;;;;;;-0.21;100.00;100724.68;104880;1260;60517;-53
2024/01/21 02:03:23;;;;;;;3.60;1.30;;;;;;;-0.18;100.00;100723.84;104965;1263;60526;-55
2024/01/21 02:08:18;;;;;;;4.80;2.10;;;;;;;-0.14;100.00;100801.48;102413;1286;600547;-51
2024/01/21 02:10:46;;;;;;;4.30;1.80;;;;;;;-0.18;100.00;100802.70;104450;1266;60753;-54
2024/01/21 02:13:15;;;;;;;3.90;2.00;;;;;;;-0.19;100.00;100798.79;104059;1270;59006;-53
2024/01/21 02:15:43;;;;;;;4.70;1.70;;;;;;;-0.22;100.00;100792.94;104141;1266;72705;-54
2024/01/21 02:18:10;;;;;;;4.00;1.70;;;;;;;-0.22;100.00;100791.88;104864;1267;65150;-53
2024/01/21 02:20:38;;;;;;;4.80;1.50;;;;;;;-0.22;100.00;100787.99;103916;1266;72642;-54
2024/01/21 02:23:07;;;;;;;6.10;2.50;;;;;;;-0.21;100.00;100788.54;103935;1266;137073;-53
2024/01/21 02:25:34;;;;;;;5.20;1.60;;;;;;;-0.19;100.00;100790.16;104400;1265;59565;-54
2024/01/21 02:28:02;;;;;;;7.20;2.40;;;;;;;-0.18;100.00;100791.41;104239;1268;72019;-54
2024/01/21 02:30:29;;;;;;;4.80;1.60;;;;;;;-0.17;100.00;100795.13;104294;1266;67021;-52
2024/01/21 02:32:56;;;;;;;4.30;2.50;;;;;;;-0.16;100.00;100792.64;104266;1266;71457;-53
2024/01/21 02:35:24;;;;;;;4.90;2.00;;;;;;;-0.17;100.00;100795.64;104250;1270;59717;-54
2024/01/21 02:37:51;;;;;;;4.30;2.00;;;;;;;-0.17;100.00;100806.05;104253;1264;60103;-54
2024/01/21 02:40:18;;;;;;;4.10;1.90;;;;;;;-0.18;100.00;100805.34;104348;1266;73252;-53
2024/01/21 02:42:46;;;;;;;4.00;1.40;;;;;;;-0.19;100.00;100803.74;104773;1256;66903;-55
2024/01/21 02:45:13;;;;;;;3.30;1.50;;;;;;;-0.19;100.00;100810.45;104870;1262;72714;-53
2024/01/21 02:47:41;;;;;;;4.50;1.90;;;;;;;-0.19;100.00;100806.04;105076;1258;59817;-54
2024/01/21 02:50:08;;;;;;;4.80;1.70;;;;;;;-0.18;100.00;100808.70;104925;1262;59586;-53
2024/01/21 02:52:36;;;;;;;4.70;2.10;;;;;;;-0.18;100.00;100810.81;105171;1262;71218;-56
2024/01/21 02:55:03;;;;;;;6.20;1.70;;;;;;;-0.16;100.00;100810.11;104765;1257;67847;-53
2024/01/21 02:57:31;;;;;;;8.20;2.90;;;;;;;-0.14;100.00;100810.13;104624;1257;71584;-54
2024/01/21 02:59:58;;;;;;;3.20;1.60;;;;;;;-0.14;100.00;100810.84;104848;1262;59690;-54
2024/01/21 03:02:25;;;;;;;5.30;2.20;;;;;;;-0.15;100.00;100813.29;104556;1259;60467;-52
2024/01/21 03:04:53;;;;;;;5.30;1.80;;;;;;;-0.16;100.00;100812.22;104779;1259;71168;-53
2024/01/21 03:07:20;;;;;;;4.70;1.70;;;;;;;-0.18;100.00;100812.93;104531;1262;67223;-53
2024/01/21 03:09:47;;;;;;;4.10;2.00;;;;;;;-0.19;100.00;100813.96;104653;1262;74998;-53
2024/01/21 03:12:15;;;;;;;4.80;1.80;;;;;;;-0.19;100.00;100814.67;104651;1262;60074;-53
2024/01/21 03:14:43;;;;;;;5.20;2.00;;;;;;;-0.20;100.00;100814.30;105121;1259;60665;-53
2024/01/21 03:17:10;;;;;;;4.30;1.80;;;;;;;-0.19;100.00;100815.03;105324;1259;71823;-53
2024/01/21 03:19:37;;;;;;;6.10;2.00;;;;;;;-0.18;100.00;100818.05;104468;1263;65827;-55
2024/01/21 03:22:05;;;;;;;4.50;1.90;;;;;;;-0.14;100.00;100821.42;104437;1264;71663;-54
2024/01/21 03:24:32;;;;;;;4.20;1.60;;;;;;;-0.11;100.00;100823.77;104729;1259;59664;-53
2024/01/21 03:26:59;;;;;;;5.70;2.90;;;;;;;-0.09;100.00;100822.73;104660;1259;59720;-54
2024/01/21 03:29:27;;;;;;;3.20;1.90;;;;;;;-0.07;100.00;100825.92;104761;1262;73391;-53
2024/01/21 03:31:54;;;;;;;4.80;2.40;;;;;;;-0.06;100.00;100828.40;104560;1260;66767;-54
2024/01/21 03:34:21;;;;;;;8.70;3.50;;;;;;;-0.07;100.00;100829.63;104685;1259;71496;-54
2024/01/21 03:36:49;;;;;;;4.70;2.30;;;;;;;-0.09;100.00;100830.33;104623;1259;59847;-53
2024/01/21 03:39:16;;;;;;;4.70;2.30;;;;;;;-0.10;100.00;100830.14;104843;1260;59749;-54
2024/01/21 03:41:45;;;;;;;5.60;2.30;;;;;;;-0.11;100.00;100831.18;104609;1259;73159;-54
2024/01/21 03:44:12;;;;;;;6.80;2.50;;;;;;;-0.11;100.00;100836.12;105433;1259;67011;-53
2024/01/21 03:46:39;;;;;;;3.50;1.70;;;;;;;-0.10;100.00;100843.55;104552;1259;73207;-55
2024/01/21 03:49:07;;;;;;;4.70;2.60;;;;;;;-0.10;100.00;100842.68;104641;1264;60335;-54
2024/01/21 03:51:34;;;;;;;4.90;3.10;;;;;;;-0.08;100.00;100847.61;104602;1259;60148;-54
2024/01/21 03:54:02;;;;;;;5.70;2.20;;;;;;;-0.06;100.00;100849.23;104611;1265;73099;-54
2024/01/21 03:56:29;;;;;;;4.90;3.20;;;;;;;-0.06;100.00;100848.35;104700;1259;66043;-53
2024/01/21 03:58:56;;;;;;;5.10;3.00;;;;;;;-0.06;100.00;100851.52;104591;1259;71452;-52
2024/01/21 04:01:24;;;;;;;6.10;2.80;;;;;;;-0.06;100.00;100853.81;104536;1259;59720;-53
2024/01/21 04:03:51;;;;;;;5.10;2.60;;;;;;;-0.07;100.00;100852.73;108765;1259;58842;-54
2024/01/21 04:06:19;;;;;;;4.60;3.00;;;;;;;-0.09;100.00;100856.97;108630;1259;73838;-55
2024/01/21 04:08:46;;;;;;;6.40;2.80;;;;;;;-0.09;100.00;100860.14;108788;1257;65708;-53
2024/01/21 04:11:13;;;;;;;5.70;2.50;;;;;;;-0.09;100.00;100863.68;108690;1258;72728;-54
2024/01/21 04:13:41;;;;;;;4.30;2.00;;;;;;;-0.09;100.00;100869.33;108706;1258;60871;-54
2024/01/21 04:16:08;;;;;;;3.90;2.20;;;;;;;-0.08;100.00;100873.56;106378;1258;60146;-54
2024/01/21 04:18:35;;;;;;;6.10;2.40;;;;;;;-0.04;100.00;100876.43;104555;1257;71858;-54
2024/01/21 04:21:03;;;;;;;5.40;2.20;;;;;;;-0.00;100.00;100878.07;104745;1257;66946;-54
2024/01/21 04:23:31;;;;;;;3.80;2.40;;;;;;;0.03;100.00;100883.73;104610;1262;72622;-53
2024/01/21 04:25:58;;;;;;;5.40;2.80;;;;;;;0.06;100.00;100884.14;104715;1259;59837;-55
2024/01/21 04:28:27;;;;;;;5.70;2.70;;;;;;;0.07;100.00;100886.62;104614;1263;61142;-54
2024/01/21 04:30:54;;;;;;;8.70;3.50;;;;;;;0.06;100.00;100892.63;104752;1262;72073;-53
2024/01/21 04:33:22;;;;;;;6.60;3.30;;;;;;;0.04;100.00;100897.17;104743;1259;67730;-53
2024/01/21 04:35:49;;;;;;;8.90;4.70;;;;;;;-0.01;100.00;100900.65;104559;1264;71262;-54
2024/01/21 04:38:17;;;;;;;7.50;4.40;;;;;;;-0.03;100.00;100904.50;107756;1262;61428;-54
2024/01/21 04:40:44;;;;;;;6.00;3.30;;;;;;;-0.05;100.00;100910.47;104787;1258;60563;-53
2024/01/21 04:43:11;;;;;;;6.00;2.70;;;;;;;-0.05;100.00;100912.41;104625;1265;71834;-53
2024/01/21 04:45:39;;;;;;;5.80;3.90;;;;;;;-0.04;100.00;100914.73;104539;1259;67479;-53
2024/01/21 04:48:06;;;;;;;6.10;3.10;;;;;;;-0.01;100.00;100922.19;104797;1262;71094;-52
2024/01/21 04:50:34;;;;;;;6.60;2.50;;;;;;;0.03;100.00;100926.80;105040;1263;59626;-54
2024/01/21 04:53:01;;;;;;;6.80;3.90;;;;;;;0.05;100.00;100930.73;104863;1259;60499;-52
2024/01/21 04:55:29;;;;;;;7.50;4.40;;;;;;;0.06;100.00;100937.45;104625;1258;71841;-53
2024/01/21 04:57:56;;;;;;;5.10;3.50;;;;;;;0.06;100.00;100940.08;104731;1264;67463;-53
2024/01/21 05:00:23;;;;;;;5.60;3.30;;;;;;;0.04;100.00;100943.75;104736;1262;70751;-53
2024/01/21 05:02:51;;;;;;;8.70;4.20;;;;;;;-0.00;100.00;100947.95;104859;1263;60927;-54
2024/01/21 05:05:18;;;;;;;5.20;3.40;;;;;;;-0.05;100.00;100948.59;104813;1261;59707;-53
2024/01/21 05:07:46;;;;;;;7.60;3.80;;;;;;;-0.07;100.00;100952.61;104587;1257;73080;-54
2024/01/21 05:10:13;;;;;;;6.20;3.20;;;;;;;-0.07;100.00;100956.31;104830;1262;65957;-54
2024/01/21 05:12:40;;;;;;;6.80;3.80;;;;;;;-0.06;100.00;100963.75;104756;1258;72635;-53
2024/01/21 05:15:08;;;;;;;4.80;2.70;;;;;;;-0.04;100.00;100967.49;104755;1261;60093;-54
2024/01/21 05:17:36;;;;;;;7.80;3.80;;;;;;;-0.00;100.00;100970.19;104777;1259;60027;-54
2024/01/21 05:20:05;;;;;;;5.90;3.60;;;;;;;0.01;100.00;100974.60;104812;1262;71304;-54
2024/01/21 05:22:32;;;;;;;8.20;4.70;;;;;;;-0.01;100.00;100979.00;105417;1262;67484;-53
2024/01/21 05:25:00;;;;;;;7.20;3.80;;;;;;;-0.02;100.00;100981.99;104618;1260;74913;-54
2024/01/21 05:27:27;;;;;;;6.10;3.90;;;;;;;-0.03;100.00;100981.45;105483;1259;59618;-53
2024/01/21 05:29:55;;;;;;;5.00;3.40;;;;;;;-0.05;100.00;100984.94;105301;1263;59639;-54
2024/01/21 05:32:22;;;;;;;5.60;3.90;;;;;;;-0.08;100.00;100992.48;104716;1262;73395;-54
2024/01/21 05:34:49;;;;;;;4.90;2.80;;;;;;;-0.08;100.00;100991.95;104355;1264;67373;-53
2024/01/21 05:37:17;;;;;;;4.50;2.50;;;;;;;-0.09;100.00;100997.25;104410;1263;72760;-52
2024/01/21 05:39:44;;;;;;;4.50;2.60;;;;;;;-0.09;100.00;100999.54;104586;1259;59730;-54
2024/01/21 05:42:12;;;;;;;4.20;2.40;;;;;;;-0.08;100.00;101004.48;107174;1262;60775;-53
2024/01/21 05:44:39;;;;;;;3.70;2.30;;;;;;;-0.06;100.00;101011.38;104618;1264;71846;-52
2024/01/21 05:47:06;;;;;;;3.70;2.50;;;;;;;-0.04;100.00;101015.66;104663;1265;65795;-53
2024/01/21 05:49:34;;;;;;;5.30;2.30;;;;;;;-0.03;100.00;101020.81;104457;1261;73109;-53
2024/01/21 05:52:01;;;;;;;4.40;2.80;;;;;;;-0.05;100.00;101027.29;104754;1262;59721;-53
2024/01/21 05:54:29;;;;;;;2.70;1.90;;;;;;;-0.09;100.00;101034.83;104418;1259;59704;-53
2024/01/21 05:56:56;;;;;;;2.80;2.00;;;;;;;-0.12;100.00;101046.06;105738;1259;71886;-53
2024/01/21 05:59:23;;;;;;;3.30;2.00;;;;;;;-0.15;100.00;101049.72;104676;1262;66708;-53
2024/01/21 06:01:52;;;;;;;2.20;1.50;;;;;;;-0.18;100.00;101054.63;105944;1259;71421;-54
2024/01/21 06:04:20;;;;;;;2.10;1.30;;;;;;;-0.19;100.00;101060.61;105034;1258;59814;-55
2024/01/21 06:06:48;;;;;;;2.30;1.20;;;;;;;-0.19;100.00;101065.19;104685;1262;59819;-54
2024/01/21 06:09:15;;;;;;;2.40;1.20;;;;;;;-0.16;100.00;101070.68;104566;1262;71871;-53
2024/01/21 06:11:45;;;;;;;3.20;1.90;;;;;;;-0.15;100.00;101074.95;104863;1263;65681;-54
2024/01/21 06:14:13;;;;;;;3.60;1.70;;;;;;;-0.15;100.00;101081.13;104699;1262;71486;-54
2024/01/21 06:16:40;;;;;;;2.40;1.80;;;;;;;-0.14;100.00;101084.30;104680;1262;60517;-53
2024/01/21 06:19:07;;;;;;;2.50;2.20;;;;;;;-0.15;100.00;101085.34;104712;1270;60470;-53
2024/01/21 06:21:42;;;;;;;3.10;2.80;;;;;;;-0.18;100.00;101090.27;104495;1258;71667;-53
2024/01/21 06:24:11;;;;;;;3.00;2.50;;;;;;;-0.20;100.00;101095.87;108808;1257;67239;-54
2024/01/21 06:26:40;;;;;;;6.30;3.60;;;;;;;-0.21;100.00;101099.91;106465;1260;72733;-53
2024/01/21 06:29:07;;;;;;;4.10;2.00;;;;;;;-0.21;100.00;101104.31;105786;1257;61420;-54
2024/01/21 06:31:35;;;;;;;3.80;2.20;;;;;;;-0.21;100.00;101100.79;104516;1263;60504;-53
2024/01/21 06:34:02;;;;;;;2.70;2.40;;;;;;;-0.19;100.00;101111.42;104643;1262;73912;-54
2024/01/21 06:36:29;;;;;;;4.60;2.10;;;;;;;-0.16;100.00;101115.52;104744;1262;66949;-53
2024/01/21 06:38:57;;;;;;;1.90;1.50;;;;;;;-0.11;100.00;101123.20;104750;1257;71542;-56
2024/01/21 06:41:24;;;;;;;7.30;2.50;;;;;;;-0.07;100.00;101131.54;104788;1272;60364;-53
2024/01/21 06:43:52;;;;;;;3.10;2.40;;;;;;;-0.03;100.00;101135.49;104790;1262;60554;-56
2024/01/21 06:46:19;;;;;;;3.70;3.20;;;;;;;0.00;100.00;101140.14;104551;1257;72556;-52
2024/01/21 06:48:46;;;;;;;3.40;3.10;;;;;;;0.03;100.00;101151.81;104776;1263;67107;-54
2024/01/21 06:51:31;;;;;;;4.20;3.40;;;;;;;0.02;100.00;101156.91;105076;1263;72697;-55
2024/01/21 06:53:59;;;;;;;4.20;3.30;;;;;;;-0.02;100.00;101165.54;106501;1263;60903;-56
2024/01/21 06:56:27;;;;;;;4.10;2.70;;;;;;;-0.05;100.00;101166.52;108688;1257;61253;-53
2024/01/21 06:58:54;;;;;;;2.30;2.00;;;;;;;-0.05;100.00;101173.75;106715;1263;72631;-54
2024/01/21 07:01:22;;;;;;;4.10;3.00;;;;;;;-0.05;100.00;101177.80;104416;1258;68744;-54
2024/01/21 07:03:49;;;;;;;3.00;2.50;;;;;;;-0.04;100.00;101177.31;108661;1260;70623;-54
2024/01/21 07:06:17;;;;;;;2.80;2.50;;;;;;;-0.00;100.00;101184.78;108675;1261;59755;-54
2024/01/21 07:08:44;;;;;;;3.10;2.80;;;;;;;0.03;100.00;101190.83;108749;1257;60090;-55
2024/01/21 07:11:11;;;;;;;2.60;2.40;;;;;;;0.04;100.00;101200.02;108740;1258;72739;-54
2024/01/21 07:13:39;;;;;;;3.50;3.20;;;;;;;0.04;100.00;101203.19;108878;1261;66737;-54
2024/01/21 07:16:06;;;;;;;3.70;3.00;;;;;;;0.01;100.00;101213.04;108696;1257;72779;-55
2024/01/21 07:18:33;;;;;;;4.20;3.10;;;;;;;-0.05;100.00;101211.34;108762;1258;59606;-54
2024/01/21 07:21:02;;;;;;;5.30;3.70;;;;;;;-0.09;100.00;101214.63;108658;1258;60117;-55
2024/01/21 07:23:29;;;;;;;3.20;2.90;;;;;;;-0.13;100.00;101215.61;107217;1258;74272;-54
2024/01/21 07:25:56;;;;;;;2.50;2.20;;;;;;;-0.14;100.00;101216.27;104684;1263;65755;-53
2024/01/21 07:28:24;;;;;;;2.90;2.40;;;;;;;-0.13;100.00;101220.91;104831;1260;72647;-52
2024/01/21 07:30:51;;;;;;;4.00;3.00;;;;;;;-0.10;100.00;101220.96;104531;1263;60505;-53
2024/01/21 07:33:19;;;;;;;4.70;3.20;;;;;;;-0.07;100.00;101220.30;108672;1257;60142;-54
2024/01/21 07:35:50;;;;;;;4.40;3.70;;;;;;;-0.05;100.00;101227.23;106096;1257;73920;-53
2024/01/21 07:38:17;;;;;;;5.20;4.40;;;;;;;-0.03;100.00;101228.14;105530;1263;66908;-52
2024/01/21 07:40:45;;;;;;;4.40;3.30;;;;;;;-0.01;100.00;101231.36;104761;1267;70845;-53
2024/01/21 07:43:13;;;;;;;3.90;3.40;;;;;;;-0.01;100.00;101236.30;104953;1263;60501;-54
2024/01/21 07:45:40;;;;;;;6.90;5.00;;;;;;;-0.04;100.00;101247.17;104537;1260;60743;-54
2024/01/21 07:48:08;;;;;;;5.80;4.80;;;;;;;-0.09;100.00;101248.52;104624;1264;72673;-55
2024/01/21 07:50:35;;;;;;;5.80;4.30;;;;;;;-0.12;100.00;101254.98;104726;1261;65848;-54
2024/01/21 07:53:03;;;;;;;4.40;3.50;;;;;;;-0.14;100.00;101264.81;104681;1260;70564;-53
2024/01/21 07:55:30;;;;;;;6.30;3.30;;;;;;;-0.16;100.00;101268.48;104631;1264;61422;-54
2024/01/21 07:57:58;;;;;;;3.70;3.10;;;;;;;-0.15;100.00;101273.27;104505;1263;60484;-54
2024/01/21 08:00:25;;;;;;;5.10;4.20;;;;;;;-0.12;100.00;101273.33;105210;1261;74239;-54
2024/01/21 08:02:52;;;;;;;7.80;3.90;;;;;;;-0.11;100.00;101278.30;104639;1257;67268;-52
2024/01/21 08:05:21;;;;;;;6.20;4.50;;;;;;;-0.09;100.00;101283.98;105257;1257;72648;-54
2024/01/21 08:07:48;;;;;;;4.30;3.90;;;;;;;-0.08;100.00;101288.05;106214;1259;61177;-53
2024/01/21 08:10:16;;;;;;;6.40;4.00;;;;;;;-0.10;100.00;101291.92;104793;1257;60452;-54
2024/01/21 08:12:43;;;;;;;6.80;5.30;;;;;;;-0.12;100.00;101297.52;104533;1260;71992;-52
2024/01/21 08:15:11;;;;;;;5.20;4.00;;;;;;;-0.15;100.00;101301.14;104639;1263;67442;-52
2024/01/21 08:17:38;;;;;;;5.00;4.10;;;;;;;-0.16;100.00;101309.75;104550;1260;72651;-52
2024/01/21 08:20:06;;;;;;;4.10;3.20;;;;;;;-0.16;100.00;101314.70;104471;1272;60576;-55
2024/01/21 08:22:34;;;;;;;4.60;3.50;;;;;;;-0.15;100.00;101322.48;104870;1257;60480;-54
2024/01/21 08:25:01;;;;;;;4.70;4.20;;;;;;;-0.11;100.00;101325.05;104485;1264;73846;-53
2024/01/21 08:27:31;;;;;;;6.50;4.90;;;;;;;-0.05;100.00;101328.70;104936;1263;67497;-54
2024/01/21 08:29:58;;;;;;;5.10;4.60;;;;;;;0.02;100.00;101335.17;104752;1263;72685;-55
2024/01/21 08:32:26;;;;;;;7.30;5.90;;;;;;;0.07;100.00;101343.04;104761;1261;60646;-54
2024/01/21 08:34:53;;;;;;;6.40;5.20;;;;;;;0.08;100.00;101349.25;104961;1256;60540;-54
2024/01/21 08:37:20;;;;;;;7.00;5.70;;;;;;;0.08;100.00;101355.97;104487;1257;74372;-53
2024/01/21 08:39:48;;;;;;;5.70;4.80;;;;;;;0.05;100.00;101353.77;104725;1257;65507;-54
2024/01/21 08:42:19;;;;;;;6.20;5.50;;;;;;;0.02;100.00;101359.17;104876;1266;71534;-54
2024/01/21 08:44:46;;;;;;;7.30;5.70;;;;;;;-0.01;100.00;101361.25;104734;1261;60710;-54
2024/01/21 08:47:14;;;;;;;6.00;5.30;;;;;;;-0.02;100.00;101364.23;104931;1263;60466;-54
2024/01/21 08:49:41;;;;;;;6.00;4.60;;;;;;;-0.01;100.00;101368.84;104475;1264;73886;-55
2024/01/21 08:52:11;;;;;;;5.80;4.90;;;;;;;-0.00;100.00;101374.15;106509;1258;66930;-51
2024/01/21 08:54:39;;;;;;;5.20;4.80;;;;;;;0.04;100.00;101375.09;107495;1261;72747;-53
2024/01/21 08:57:06;;;;;;;10.60;4.70;;;;;;;0.07;100.00;101379.95;104579;1256;60527;-51
2024/01/21 08:59:33;;;;;;;7.50;5.50;;;;;;;0.11;100.00;101377.70;104765;1257;60917;-53
2024/01/21 09:02:01;;;;;;;6.70;5.20;;;;;;;0.12;100.00;101376.15;104651;1258;72706;-53
2024/01/21 09:04:28;;;;;;;8.10;6.50;;;;;;;0.12;100.00;101378.09;105043;1254;65396;-53
2024/01/21 09:06:56;;;;;;;7.00;5.60;;;;;;;0.13;100.00;101376.70;105011;1257;74498;-53
2024/01/21 09:09:23;;;;;;;6.80;5.40;;;;;;;0.13;100.00;101378.99;104891;1254;60441;-53
2024/01/21 09:11:51;;;;;;;10.40;7.50;;;;;;;0.13;100.00;101381.65;104887;1257;60613;-53
2024/01/21 09:14:18;;;;;;;6.70;5.40;;;;;;;0.14;100.00;101386.42;105389;1258;73849;-53
2024/01/21 09:16:47;;;;;;;8.20;6.80;;;;;;;0.14;100.00;101387.86;104828;1258;67398;-53
2024/01/21 09:19:14;;;;;;;10.40;6.60;;;;;;;0.16;100.00;101391.26;109006;1254;71505;-53
2024/01/21 09:21:42;;;;;;;5.40;4.90;;;;;;;0.19;100.00;101395.35;109067;1254;61592;-54
2024/01/21 09:24:09;;;;;;;5.90;4.20;;;;;;;0.25;100.00;101403.08;109179;1254;59150;-54
2024/01/21 09:26:37;;;;;;;5.70;4.40;;;;;;;0.31;100.00;101411.32;108941;1254;73772;-53
2024/01/21 09:29:04;;;;;;;6.50;5.60;;;;;;;0.37;100.00;101412.48;109036;1254;65932;-54
2024/01/21 09:31:31;;;;;;;7.50;5.30;;;;;;;0.42;100.00;101424.42;108958;1254;72630;-54
2024/01/21 09:33:59;;;;;;;7.20;5.50;;;;;;;0.47;100.00;101424.52;107449;1257;60665;-53
2024/01/21 09:36:26;;;;;;;6.90;6.00;;;;;;;0.49;100.00;101430.40;104983;1255;60358;-54
2024/01/21 09:38:54;;;;;;;8.80;6.70;;;;;;;0.47;100.00;101433.71;104872;1258;72645;-52
2024/01/21 09:41:42;;;;;;;6.80;6.00;;;;;;;0.44;100.00;101438.92;107707;1254;65968;-53
2024/01/21 09:44:10;;;;;;;7.60;6.20;;;;;;;0.39;100.00;101444.15;104892;1258;71893;-53
2024/01/21 09:46:37;;;;;;;7.80;5.80;;;;;;;0.35;100.00;101446.17;104811;1259;60930;-54
2024/01/21 09:49:06;;;;;;;7.40;5.60;;;;;;;0.33;100.00;101448.09;106493;1254;60555;-54
2024/01/21 09:51:37;;;;;;;5.10;4.70;;;;;;;0.35;100.00;101446.52;106854;1253;73920;-53
2024/01/21 09:54:06;;;;;;;7.00;5.00;;;;;;;0.39;100.00;101448.92;104754;1258;68655;-52
2024/01/21 09:56:34;;;;;;;5.50;4.60;;;;;;;0.45;100.00;101454.67;108877;1254;74185;-53
2024/01/21 09:59:02;;;;;;;7.30;5.50;;;;;;;0.50;100.00;101460.61;104947;1260;61072;-53
2024/01/21 10:01:29;;;;;;;6.40;5.50;;;;;;;0.53;100.00;101462.77;104955;1255;60436;-53
2024/01/21 10:03:56;;;;;;;7.60;6.10;;;;;;;0.51;100.00;101465.56;108881;1252;72728;-53
2024/01/21 10:06:25;;;;;;;7.20;5.50;;;;;;;0.50;100.00;101467.14;109027;1253;67506;-53
2024/01/21 10:08:52;;;;;;;6.90;6.10;;;;;;;0.47;100.00;101470.78;109127;1254;70876;-53
2024/01/21 10:11:20;;;;;;;6.70;6.10;;;;;;;0.43;100.00;101482.02;109034;1253;62796;-53
2024/01/21 10:13:47;;;;;;;7.10;5.50;;;;;;;0.40;100.00;101486.02;108341;1255;60926;-52
2024/01/21 10:16:14;;;;;;;5.30;4.40;;;;;;;0.34;100.00;101494.55;106643;1257;72666;-51
2024/01/21 10:18:46;;;;;;;5.30;4.30;;;;;;;0.30;100.00;101498.34;104904;1253;68287;-52
2024/01/21 10:21:13;;;;;;;7.90;5.20;;;;;;;0.29;100.00;101506.11;109194;1254;72850;-53
2024/01/21 10:23:41;;;;;;;6.10;4.60;;;;;;;0.31;100.00;101513.90;108826;1257;60970;-53
2024/01/21 10:26:08;;;;;;;5.10;3.90;;;;;;;0.33;100.00;101524.91;109018;1253;58774;-54
2024/01/21 10:28:35;;;;;;;4.40;3.80;;;;;;;0.34;100.00;101528.98;107597;1254;73855;-53
2024/01/21 10:31:03;;;;;;;9.20;5.60;;;;;;;0.30;100.00;101541.27;107387;1254;67175;-54
2024/01/21 10:33:30;;;;;;;7.00;5.40;;;;;;;0.22;100.00;101548.66;104736;1259;72827;-52
2024/01/21 10:36:00;;;;;;;9.30;6.20;;;;;;;0.08;100.00;101554.89;104837;1254;60559;-52
2024/01/21 10:38:29;;;;;;;8.70;5.30;;;;;;;-0.04;100.00;101563.61;105291;1254;60549;-55
2024/01/21 10:40:57;;;;;;;8.00;6.50;;;;;;;-0.16;100.00;101572.86;104904;1258;72614;-53
2024/01/21 10:43:24;;;;;;;9.80;6.90;;;;;;;-0.27;100.00;101577.70;104886;1254;67303;-54
2024/01/21 10:45:51;;;;;;;11.10;7.20;;;;;;;-0.35;100.00;101584.02;104907;1254;71516;-53
2024/01/21 10:48:19;;;;;;;10.80;7.40;;;;;;;-0.43;100.00;101593.54;105052;1253;60525;-53
2024/01/21 10:50:47;;;;;;;11.10;8.30;;;;;;;-0.56;100.00;101595.66;105157;1259;60718;-55
2024/01/21 10:53:16;;;;;;;14.60;8.80;;;;;;;-0.71;100.00;101593.84;104786;1254;73884;-53
2024/01/21 10:55:44;;;;;;;16.90;8.50;;;;;;;-0.83;100.00;101600.75;104712;1253;67320;-54
2024/01/21 10:58:11;;;;;;;10.40;8.30;;;;;;;-0.94;100.00;101606.82;104941;1259;70884;-53
2024/01/21 11:00:39;;;;;;;12.70;9.20;;;;;;;-1.03;100.00;101612.37;105573;1253;60436;-54
2024/01/21 11:03:27;;;;;;;15.20;9.60;;;;;;;-1.10;100.00;101614.46;106030;1254;60569;-54
2024/01/21 11:06:00;;;;;;;12.40;8.50;;;;;;;-1.18;100.00;101620.91;104738;1258;73943;-54
2024/01/21 11:08:27;;;;;;;13.30;8.80;;;;;;;-1.25;100.00;101626.88;106086;1257;66942;-52
2024/01/21 11:11:16;;;;;;;13.10;7.80;;;;;;;-1.29;100.00;101631.19;104956;1255;73090;-54
2024/01/21 11:13:45;;;;;;;16.50;10.70;;;;;;;-1.32;100.00;101637.44;104751;1256;60639;-52